sensor_id;sensor_type;location;lat;lon;timestamp;pressure;altitude;pressure_sealevel;temperature;humidity
47670;BME280;33408;52.062;11.722;2023-11-19T00:02:16;100900.88;;;5.00;100.00
47670;BME280;33408;52.062;11.722;2023-11-19T00:04:44;100880.38;;;5.04;100.00
47670;BME280;33408;52.062;11.722;2023-11-19T00:07:10;100870.88;;;4.97;100.00
47670;BME280;33408;52.062;11.722;2023-11-19T00:09:38;100864.06;;;5.01;100.00
47670;BME280;33408;52.062;11.722;2023-11-19T00:12:06;100861.47;;;4.96;100.00
47670;BME280;33408;52.062;11.722;2023-11-19T00:14:33;100863.19;;;4.99;100.00
47670;BME280;33408;52.062;11.722;2023-11-19T00:17:02;100852.06;;;4.98;100.00
47670;BME280;33408;52.062;11.722;2023-11-19T00:19:29;100835.81;;;4.99;100.00
47670;BME280;33408;52.062;11.722;2023-11-19T00:21:56;100838.38;;;4.98;100.00
47670;BME280;33408;52.062;11.722;2023-11-19T00:24:25;100828.09;;;4.99;100.00
47670;BME280;33408;52.062;11.722;2023-11-19T00:26:51;100825.53;;;4.98;100.00
47670;BME280;33408;52.062;11.722;2023-11-19T00:29:18;100818.66;;;5.00;100.00
47670;BME280;33408;52.062;11.722;2023-11-19T00:31:45;100809.25;;;5.02;100.00
47670;BME280;33408;52.062;11.722;2023-11-19T00:34:13;100800.69;;;5.00;100.00
47670;BME280;33408;52.062;11.722;2023-11-19T00:36:40;100809.25;;;5.00;100.00
47670;BME280;33408;52.062;11.722;2023-11-19T00:39:06;100782.66;;;4.93;100.00
47670;BME280;33408;52.062;11.722;2023-11-19T00:41:33;100775.00;;;4.98;100.00
47670;BME280;33408;52.062;11.722;2023-11-19T00:44:00;100772.41;;;4.98;100.00
47670;BME280;33408;52.062;11.722;2023-11-19T00:46:26;100771.59;;;4.99;100.00
47670;BME280;33408;52.062;11.722;2023-11-19T00:48:53;100776.69;;;4.95;100.00
47670;BME280;33408;52.062;11.722;2023-11-19T00:51:21;100773.25;;;4.96;100.00
47670;BME280;33408;52.062;11.722;2023-11-19T00:53:48;100769.00;;;4.98;100.00
47670;BME280;33408;52.062;11.722;2023-11-19T00:56:15;100753.56;;;4.91;100.00
47670;BME280;33408;52.062;11.722;2023-11-19T00:58:42;100750.13;;;4.94;100.00
47670;BME280;33408;52.062;11.722;2023-11-19T01:01:09;100746.72;;;4.93;100.00
47670;BME280;33408;52.062;11.722;2023-11-19T01:03:36;100742.41;;;4.94;100.00
47670;BME280;33408;52.062;11.722;2023-11-19T01:06:03;100743.31;;;4.96;100.00
47670;BME280;33408;52.062;11.722;2023-11-19T01:08:31;100736.44;;;4.98;100.00
47670;BME280;33408;52.062;11.722;2023-11-19T01:10:57;100723.59;;;4.95;100.00
47670;BME280;33408;52.062;11.722;2023-11-19T01:13:25;100714.16;;;4.96;100.00
47670;BME280;33408;52.062;11.722;2023-11-19T01:15:51;100717.63;;;4.99;100.00
47670;BME280;33408;52.062;11.722;2023-11-19T01:18:18;100715.06;;;4.98;100.00
47670;BME280;33408;52.062;11.722;2023-11-19T01:20:45;100708.19;;;4.95;100.00
47670;BME280;33408;52.062;11.722;2023-11-19T01:23:11;100713.31;;;4.93;100.00
47670;BME280;33408;52.062;11.722;2023-11-19T01:25:42;100709.03;;;4.97;100.00
47670;BME280;33408;52.062;11.722;2023-11-19T01:28:08;100691.94;;;4.96;100.00
47670;BME280;33408;52.062;11.722;2023-11-19T01:30:35;100679.09;;;4.96;100.00
47670;BME280;33408;52.062;11.722;2023-11-19T01:33:02;100669.66;;;4.93;100.00
47670;BME280;33408;52.062;11.722;2023-11-19T01:35:28;100666.22;;;4.95;100.00
47670;BME280;33408;52.062;11.722;2023-11-19T01:37:55;100666.25;;;4.99;100.00
47670;BME280;33408;52.062;11.722;2023-11-19T01:40:22;100679.91;;;4.95;100.00
47670;BME280;33408;52.062;11.722;2023-11-19T01:42:50;100670.50;;;4.96;100.00
47670;BME280;33408;52.062;11.722;2023-11-19T01:45:22;100668.81;;;4.95;100.00
47670;BME280;33408;52.062;11.722;2023-11-19T01:47:53;100667.09;;;5.01;100.00
47670;BME280;33408;52.062;11.722;2023-11-19T01:50:21;100658.53;;;4.96;100.00
47670;BME280;33408;52.062;11.722;2023-11-19T01:52:48;100643.97;;;5.01;100.00
47670;BME280;33408;52.062;11.722;2023-11-19T01:55:15;100620.84;;;4.93;100.00
47670;BME280;33408;52.062;11.722;2023-11-19T01:57:41;100619.13;;;4.97;100.00
47670;BME280;33408;52.062;11.722;2023-11-19T02:00:11;100608.84;;;4.99;100.00
47670;BME280;33408;52.062;11.722;2023-11-19T02:02:38;100609.72;;;4.95;100.00
47670;BME280;33408;52.062;11.722;2023-11-19T02:05:06;100605.44;;;5.03;100.00
47670;BME280;33408;52.062;11.722;2023-11-19T02:07:33;100602.03;;;4.98;100.00
47670;BME280;33408;52.062;11.722;2023-11-19T02:10:00;100591.75;;;4.99;100.00
47670;BME280;33408;52.062;11.722;2023-11-19T02:12:27;100575.47;;;4.99;100.00
47670;BME280;33408;52.062;11.722;2023-11-19T02:14:54;100556.63;;;4.95;100.00
47670;BME280;33408;52.062;11.722;2023-11-19T02:17:29;100539.50;;;5.00;100.00
47670;BME280;33408;52.062;11.722;2023-11-19T02:19:57;100532.66;;;4.98;100.00
47670;BME280;33408;52.062;11.722;2023-11-19T02:22:23;100527.53;;;4.99;100.00
47670;BME280;33408;52.062;11.722;2023-11-19T02:24:51;100532.66;;;5.01;100.00
47670;BME280;33408;52.062;11.722;2023-11-19T02:27:29;100528.38;;;5.00;100.00
47670;BME280;33408;52.062;11.722;2023-11-19T02:29:58;100536.09;;;5.00;100.00
47670;BME280;33408;52.062;11.722;2023-11-19T02:32:27;100530.94;;;5.00;100.00
47670;BME280;33408;52.062;11.722;2023-11-19T02:34:56;100517.22;;;5.02;100.00
47670;BME280;33408;52.062;11.722;2023-11-19T02:37:22;100512.09;;;5.05;100.00
47670;BME280;33408;52.062;11.722;2023-11-19T02:39:49;100506.94;;;5.05;100.00
47670;BME280;33408;52.062;11.722;2023-11-19T02:42:16;100502.69;;;5.01;100.00
47670;BME280;33408;52.062;11.722;2023-11-19T02:44:44;100495.84;;;5.06;100.00
47670;BME280;33408;52.062;11.722;2023-11-19T02:47:12;100495.00;;;5.06;100.00
47670;BME280;33408;52.062;11.722;2023-11-19T02:49:38;100483.00;;;5.06;100.00
47670;BME280;33408;52.062;11.722;2023-11-19T02:52:06;100471.88;;;5.07;100.00
47670;BME280;33408;52.062;11.722;2023-11-19T02:54:35;100464.16;;;5.10;100.00
47670;BME280;33408;52.062;11.722;2023-11-19T02:57:02;100467.56;;;5.08;100.00
47670;BME280;33408;52.062;11.722;2023-11-19T02:59:30;100453.00;;;5.07;100.00
47670;BME280;33408;52.062;11.722;2023-11-19T03:02:04;100449.59;;;5.05;100.00
47670;BME280;33408;52.062;11.722;2023-11-19T03:04:33;100445.28;;;5.08;100.00
47670;BME280;33408;52.062;11.722;2023-11-19T03:07:00;100451.31;;;5.06;100.00
47670;BME280;33408;52.062;11.722;2023-11-19T03:09:27;100437.59;;;5.05;100.00
47670;BME280;33408;52.062;11.722;2023-11-19T03:11:54;100429.03;;;5.05;100.00
47670;BME280;33408;52.062;11.722;2023-11-19T03:14:21;100428.19;;;5.04;100.00
47670;BME280;33408;52.062;11.722;2023-11-19T03:16:48;100441.03;;;5.06;100.00
47670;BME280;33408;52.062;11.722;2023-11-19T03:19:16;100457.31;;;5.11;100.00
47670;BME280;33408;52.062;11.722;2023-11-19T03:21:44;100459.88;;;5.09;100.00
47670;BME280;33408;52.062;11.722;2023-11-19T03:24:13;100450.44;;;5.11;100.00
47670;BME280;33408;52.062;11.722;2023-11-19T03:26:40;100443.59;;;5.14;100.00
47670;BME280;33408;52.062;11.722;2023-11-19T03:29:08;100443.59;;;5.09;100.00
47670;BME280;33408;52.062;11.722;2023-11-19T03:31:34;100428.19;;;5.09;100.00
47670;BME280;33408;52.062;11.722;2023-11-19T03:34:01;100413.63;;;5.11;100.00
47670;BME280;33408;52.062;11.722;2023-11-19T03:36:32;100406.75;;;5.18;100.00
47670;BME280;33408;52.062;11.722;2023-11-19T03:39:00;100393.06;;;5.19;100.00
47670;BME280;33408;52.062;11.722;2023-11-19T03:41:28;100404.19;;;5.21;100.00
47670;BME280;33408;52.062;11.722;2023-11-19T03:43:55;100402.47;;;5.23;100.00
47670;BME280;33408;52.062;11.722;2023-11-19T03:46:22;100388.75;;;5.25;100.00
47670;BME280;33408;52.062;11.722;2023-11-19T03:48:50;100370.78;;;5.21;100.00
47670;BME280;33408;52.062;11.722;2023-11-19T03:51:17;100350.22;;;5.21;100.00
47670;BME280;33408;52.062;11.722;2023-11-19T03:53:44;100339.94;;;5.24;100.00
47670;BME280;33408;52.062;11.722;2023-11-19T03:56:12;100337.34;;;5.27;100.00
47670;BME280;33408;52.062;11.722;2023-11-19T03:58:39;100341.66;;;5.25;100.00
47670;BME280;33408;52.062;11.722;2023-11-19T04:01:10;100331.38;;;5.26;100.00
47670;BME280;33408;52.062;11.722;2023-11-19T04:03:37;100330.50;;;5.26;100.00
47670;BME280;33408;52.062;11.722;2023-11-19T04:06:04;100321.94;;;5.27;100.00
47670;BME280;33408;52.062;11.722;2023-11-19T04:08:31;100327.06;;;5.28;100.00
47670;BME280;33408;52.062;11.722;2023-11-19T04:10:58;100319.38;;;5.27;100.00
47670;BME280;33408;52.062;11.722;2023-11-19T04:13:26;100312.50;;;5.30;100.00
47670;BME280;33408;52.062;11.722;2023-11-19T04:15:52;100303.94;;;5.35;100.00
47670;BME280;33408;52.062;11.722;2023-11-19T04:18:19;100305.63;;;5.34;100.00
47670;BME280;33408;52.062;11.722;2023-11-19T04:20:46;100304.75;;;5.40;100.00
47670;BME280;33408;52.062;11.722;2023-11-19T04:23:13;100296.16;;;5.41;100.00
47670;BME280;33408;52.062;11.722;2023-11-19T04:25:39;100311.56;;;5.47;100.00
47670;BME280;33408;52.062;11.722;2023-11-19T04:28:06;100297.00;;;5.49;100.00
47670;BME280;33408;52.062;11.722;2023-11-19T04:30:34;100290.13;;;5.51;100.00
47670;BME280;33408;52.062;11.722;2023-11-19T04:33:03;100295.28;;;5.54;100.00
47670;BME280;33408;52.062;11.722;2023-11-19T04:35:29;100296.94;;;5.60;100.00
47670;BME280;33408;52.062;11.722;2023-11-19T04:37:56;100298.66;;;5.64;100.00
47670;BME280;33408;52.062;11.722;2023-11-19T04:40:23;100299.50;;;5.64;100.00
47670;BME280;33408;52.062;11.722;2023-11-19T04:42:50;100280.63;;;5.67;100.00
47670;BME280;33408;52.062;11.722;2023-11-19T04:45:16;100280.63;;;5.72;100.00
47670;BME280;33408;52.062;11.722;2023-11-19T04:47:44;100277.16;;;5.74;100.00
47670;BME280;33408;52.062;11.722;2023-11-19T04:50:11;100269.41;;;5.77;100.00
47670;BME280;33408;52.062;11.722;2023-11-19T04:52:38;100263.41;;;5.83;100.00
47670;BME280;33408;52.062;11.722;2023-11-19T04:55:08;100280.50;;;5.85;100.00
47670;BME280;33408;52.062;11.722;2023-11-19T04:57:36;100264.19;;;5.94;100.00
47670;BME280;33408;52.062;11.722;2023-11-19T05:00:04;100271.03;;;5.97;100.00
47670;BME280;33408;52.062;11.722;2023-11-19T05:02:32;100272.72;;;6.04;100.00
47670;BME280;33408;52.062;11.722;2023-11-19T05:05:01;100271.81;;;6.08;100.00
47670;BME280;33408;52.062;11.722;2023-11-19T05:07:29;100267.53;;;6.10;100.00
47670;BME280;33408;52.062;11.722;2023-11-19T05:09:56;100262.38;;;6.10;100.00
47670;BME280;33408;52.062;11.722;2023-11-19T05:12:23;100258.03;;;6.17;100.00
47670;BME280;33408;52.062;11.722;2023-11-19T05:14:50;100245.19;;;6.15;100.00
47670;BME280;33408;52.062;11.722;2023-11-19T05:17:17;100258.84;;;6.20;100.00
47670;BME280;33408;52.062;11.722;2023-11-19T05:19:44;100259.66;;;6.26;100.00
47670;BME280;33408;52.062;11.722;2023-11-19T05:22:12;100243.31;;;6.31;100.00
47670;BME280;33408;52.062;11.722;2023-11-19T05:24:39;100253.59;;;6.36;100.00
47670;BME280;33408;52.062;11.722;2023-11-19T05:27:06;100254.38;;;6.43;100.00
47670;BME280;33408;52.062;11.722;2023-11-19T05:29:33;100250.06;;;6.46;100.00
47670;BME280;33408;52.062;11.722;2023-11-19T05:31:59;100255.09;;;6.59;100.00
47670;BME280;33408;52.062;11.722;2023-11-19T05:34:27;100249.88;;;6.62;100.00
47670;BME280;33408;52.062;11.722;2023-11-19T05:36:53;100247.25;;;6.66;100.00
47670;BME280;33408;52.062;11.722;2023-11-19T05:39:21;100248.09;;;6.71;100.00
47670;BME280;33408;52.062;11.722;2023-11-19T05:41:49;100243.72;;;6.78;100.00
47670;BME280;33408;52.062;11.722;2023-11-19T05:44:17;100243.59;;;6.87;100.00
47670;BME280;33408;52.062;11.722;2023-11-19T05:46:43;100224.63;;;6.96;100.00
47670;BME280;33408;52.062;11.722;2023-11-19T05:49:11;100234.78;;;7.10;100.00
47670;BME280;33408;52.062;11.722;2023-11-19T05:51:38;100236.41;;;7.16;100.00
47670;BME280;33408;52.062;11.722;2023-11-19T05:54:06;100230.22;;;7.29;100.00
47670;BME280;33408;52.062;11.722;2023-11-19T05:56:34;100236.84;;;7.48;100.00
47670;BME280;33408;52.062;11.722;2023-11-19T05:59:01;100222.13;;;7.57;100.00
47670;BME280;33408;52.062;11.722;2023-11-19T06:01:32;100222.00;;;7.64;100.00
47670;BME280;33408;52.062;11.722;2023-11-19T06:03:58;100215.91;;;7.72;100.00
47670;BME280;33408;52.062;11.722;2023-11-19T06:06:26;100210.78;;;7.67;100.00
47670;BME280;33408;52.062;11.722;2023-11-19T06:08:53;100210.69;;;7.75;100.00
47670;BME280;33408;52.062;11.722;2023-11-19T06:11:20;100201.97;;;7.82;100.00
47670;BME280;33408;52.062;11.722;2023-11-19T06:13:48;100202.69;;;7.90;100.00
47670;BME280;33408;52.062;11.722;2023-11-19T06:16:15;100200.19;;;7.84;100.00
47670;BME280;33408;52.062;11.722;2023-11-19T06:18:42;100213.19;;;7.79;100.00
47670;BME280;33408;52.062;11.722;2023-11-19T06:21:09;100202.84;;;7.82;100.00
47670;BME280;33408;52.062;11.722;2023-11-19T06:23:36;100198.47;;;7.86;100.00
47670;BME280;33408;52.062;11.722;2023-11-19T06:26:02;100198.44;;;7.88;100.00
47670;BME280;33408;52.062;11.722;2023-11-19T06:28:30;100195.84;;;7.89;100.00
47670;BME280;33408;52.062;11.722;2023-11-19T06:30:58;100202.72;;;7.87;100.00
47670;BME280;33408;52.062;11.722;2023-11-19T06:33:25;100202.00;;;7.79;100.00
47670;BME280;33408;52.062;11.722;2023-11-19T06:35:52;100212.31;;;7.79;100.00
47670;BME280;33408;52.062;11.722;2023-11-19T06:38:19;100209.69;;;7.82;100.00
47670;BME280;33408;52.062;11.722;2023-11-19T06:40:46;100202.94;;;7.75;100.00
47670;BME280;33408;52.062;11.722;2023-11-19T06:43:13;100196.03;;;7.77;100.00
47670;BME280;33408;52.062;11.722;2023-11-19T06:45:40;100184.94;;;7.70;100.00
47670;BME280;33408;52.062;11.722;2023-11-19T06:48:08;100184.88;;;7.75;100.00
47670;BME280;33408;52.062;11.722;2023-11-19T06:50:35;100188.91;;;7.91;100.00
47670;BME280;33408;52.062;11.722;2023-11-19T06:53:02;100199.19;;;7.94;100.00
47670;BME280;33408;52.062;11.722;2023-11-19T06:55:30;100203.59;;;7.89;100.00
47670;BME280;33408;52.062;11.722;2023-11-19T06:57:59;100204.31;;;7.97;100.00
47670;BME280;33408;52.062;11.722;2023-11-19T07:00:27;100205.09;;;8.01;100.00
47670;BME280;33408;52.062;11.722;2023-11-19T07:02:54;100205.09;;;8.01;100.00
47670;BME280;33408;52.062;11.722;2023-11-19T07:05:22;100198.19;;;8.03;100.00
47670;BME280;33408;52.062;11.722;2023-11-19T07:07:49;100206.00;;;7.98;100.00
47670;BME280;33408;52.062;11.722;2023-11-19T07:10:16;100213.75;;;7.98;100.00
47670;BME280;33408;52.062;11.722;2023-11-19T07:12:43;100212.06;;;7.96;100.00
47670;BME280;33408;52.062;11.722;2023-11-19T07:15:10;100227.28;;;8.11;100.00
47670;BME280;33408;52.062;11.722;2023-11-19T07:17:38;100220.22;;;8.22;100.00
47670;BME280;33408;52.062;11.722;2023-11-19T07:20:09;100227.09;;;8.24;100.00
47670;BME280;33408;52.062;11.722;2023-11-19T07:22:42;100221.84;;;8.30;100.00
47670;BME280;33408;52.062;11.722;2023-11-19T07:25:11;100220.94;;;8.32;100.00
47670;BME280;33408;52.062;11.722;2023-11-19T07:27:37;100220.84;;;8.37;100.00
47670;BME280;33408;52.062;11.722;2023-11-19T07:30:05;100221.63;;;8.44;100.00
47670;BME280;33408;52.062;11.722;2023-11-19T07:32:33;100230.13;;;8.50;100.00
47670;BME280;33408;52.062;11.722;2023-11-19T07:34:59;100224.22;;;8.44;100.00
47670;BME280;33408;52.062;11.722;2023-11-19T07:37:26;100227.63;;;8.46;100.00
47670;BME280;33408;52.062;11.722;2023-11-19T07:39:54;100231.06;;;8.45;100.00
47670;BME280;33408;52.062;11.722;2023-11-19T07:42:21;100230.13;;;8.50;100.00
47670;BME280;33408;52.062;11.722;2023-11-19T07:44:49;100237.84;;;8.52;100.00
47670;BME280;33408;52.062;11.722;2023-11-19T07:47:15;100231.63;;;8.62;100.00
47670;BME280;33408;52.062;11.722;2023-11-19T07:49:42;100234.25;;;8.61;100.00
47670;BME280;33408;52.062;11.722;2023-11-19T07:52:09;100235.19;;;8.56;100.00
47670;BME280;33408;52.062;11.722;2023-11-19T07:54:36;100232.53;;;8.60;100.00
47670;BME280;33408;52.062;11.722;2023-11-19T07:57:04;100250.47;;;8.67;100.00
47670;BME280;33408;52.062;11.722;2023-11-19T07:59:30;100244.44;;;8.68;100.00
47670;BME280;33408;52.062;11.722;2023-11-19T08:01:57;100248.75;;;8.68;100.00
47670;BME280;33408;52.062;11.722;2023-11-19T08:04:24;100243.59;;;8.68;100.00
47670;BME280;33408;52.062;11.722;2023-11-19T08:06:51;100251.28;;;8.69;100.00
47670;BME280;33408;52.062;11.722;2023-11-19T08:09:17;100254.63;;;8.76;100.00
47670;BME280;33408;52.062;11.722;2023-11-19T08:11:44;100253.41;;;8.96;100.00
47670;BME280;33408;52.062;11.722;2023-11-19T08:14:12;100254.84;;;9.09;100.00
47670;BME280;33408;52.062;11.722;2023-11-19T08:16:39;100260.75;;;9.16;100.00
47670;BME280;33408;52.062;11.722;2023-11-19T08:19:13;100253.75;;;9.21;100.00
47670;BME280;33408;52.062;11.722;2023-11-19T08:21:39;100259.56;;;9.30;100.00
47670;BME280;33408;52.062;11.722;2023-11-19T08:24:06;100260.31;;;9.37;100.00
47670;BME280;33408;52.062;11.722;2023-11-19T08:26:33;100268.06;;;9.39;100.00
47670;BME280;33408;52.062;11.722;2023-11-19T08:28:59;100264.44;;;9.46;100.00
47670;BME280;33408;52.062;11.722;2023-11-19T08:31:27;100263.53;;;9.48;100.00
47670;BME280;33408;52.062;11.722;2023-11-19T08:33:54;100255.75;;;9.50;100.00
47670;BME280;33408;52.062;11.722;2023-11-19T08:36:21;100252.75;;;9.67;100.00
47670;BME280;33408;52.062;11.722;2023-11-19T08:38:47;100245.63;;;9.77;100.00
47670;BME280;33408;52.062;11.722;2023-11-19T08:41:14;100242.22;;;9.76;100.00
47670;BME280;33408;52.062;11.722;2023-11-19T08:43:43;100238.81;;;9.74;100.00
47670;BME280;33408;52.062;11.722;2023-11-19T08:46:10;100240.28;;;9.84;100.00
47670;BME280;33408;52.062;11.722;2023-11-19T08:48:38;100241.91;;;9.90;100.00
47670;BME280;33408;52.062;11.722;2023-11-19T08:51:05;100251.91;;;10.04;100.00
47670;BME280;33408;52.062;11.722;2023-11-19T08:53:31;100246.59;;;10.10;100.00
47670;BME280;33408;52.062;11.722;2023-11-19T08:55:58;100252.56;;;10.12;100.00
47670;BME280;33408;52.062;11.722;2023-11-19T08:58:25;100251.69;;;10.13;100.00
47670;BME280;33408;52.062;11.722;2023-11-19T09:00:52;100255.03;;;10.18;100.00
47670;BME280;33408;52.062;11.722;2023-11-19T09:03:19;100250.47;;;10.28;100.00
47670;BME280;33408;52.062;11.722;2023-11-19T09:05:47;100258.63;;;10.49;100.00
47670;BME280;33408;52.062;11.722;2023-11-19T09:08:13;100268.03;;;10.53;100.00
47670;BME280;33408;52.062;11.722;2023-11-19T09:10:40;100269.72;;;10.54;100.00
47670;BME280;33408;52.062;11.722;2023-11-19T09:13:07;100267.91;;;10.56;100.00
47670;BME280;33408;52.062;11.722;2023-11-19T09:15:33;100269.63;;;10.57;100.00
47670;BME280;33408;52.062;11.722;2023-11-19T09:18:00;100283.63;;;10.51;100.00
47670;BME280;33408;52.062;11.722;2023-11-19T09:20:27;100270.91;;;10.40;100.00
47670;BME280;33408;52.062;11.722;2023-11-19T09:22:56;100265.63;;;10.45;100.00
47670;BME280;33408;52.062;11.722;2023-11-19T09:25:31;100264.56;;;10.52;100.00
47670;BME280;33408;52.062;11.722;2023-11-19T09:27:58;100262.78;;;10.54;100.00
47670;BME280;33408;52.062;11.722;2023-11-19T09:30:25;100262.88;;;10.51;100.00
47670;BME280;33408;52.062;11.722;2023-11-19T09:32:51;100263.50;;;10.61;100.00
47670;BME280;33408;52.062;11.722;2023-11-19T09:35:18;100274.84;;;10.55;100.00
47670;BME280;33408;52.062;11.722;2023-11-19T09:37:45;100269.97;;;10.43;100.00
47670;BME280;33408;52.062;11.722;2023-11-19T09:40:11;100274.31;;;10.43;100.00
47670;BME280;33408;52.062;11.722;2023-11-19T09:42:43;100278.00;;;10.34;100.00
47670;BME280;33408;52.062;11.722;2023-11-19T09:45:12;100279.06;;;10.23;100.00
47670;BME280;33408;52.062;11.722;2023-11-19T09:47:40;100285.19;;;10.21;100.00
47670;BME280;33408;52.062;11.722;2023-11-19T09:50:07;100282.56;;;10.22;100.00
47670;BME280;33408;52.062;11.722;2023-11-19T09:52:34;100285.53;;;10.43;100.00
47670;BME280;33408;52.062;11.722;2023-11-19T09:55:01;100290.56;;;10.49;100.00
47670;BME280;33408;52.062;11.722;2023-11-19T09:57:30;100293.53;;;10.68;100.00
47670;BME280;33408;52.062;11.722;2023-11-19T10:00:01;100283.44;;;10.90;100.00
47670;BME280;33408;52.062;11.722;2023-11-19T10:02:31;100283.34;;;10.95;100.00
47670;BME280;33408;52.062;11.722;2023-11-19T10:05:04;100279.94;;;10.91;100.00
47670;BME280;33408;52.062;11.722;2023-11-19T10:07:32;100278.94;;;10.97;100.00
47670;BME280;33408;52.062;11.722;2023-11-19T10:09:59;100277.06;;;11.02;100.00
47670;BME280;33408;52.062;11.722;2023-11-19T10:12:26;100275.44;;;11.00;100.00
47670;BME280;33408;52.062;11.722;2023-11-19T10:14:57;100270.03;;;11.06;100.00
47670;BME280;33408;52.062;11.722;2023-11-19T10:17:28;100277.00;;;11.05;100.00
47670;BME280;33408;52.062;11.722;2023-11-19T10:19:55;100276.03;;;11.09;100.00
47670;BME280;33408;52.062;11.722;2023-11-19T10:22:22;100275.81;;;11.16;100.00
47670;BME280;33408;52.062;11.722;2023-11-19T10:24:52;100272.38;;;11.15;100.00
47670;BME280;33408;52.062;11.722;2023-11-19T10:27:18;100274.09;;;11.16;100.00
47670;BME280;33408;52.062;11.722;2023-11-19T10:29:45;100272.50;;;11.10;100.00
47670;BME280;33408;52.062;11.722;2023-11-19T10:32:13;100271.72;;;11.08;100.00
47670;BME280;33408;52.062;11.722;2023-11-19T10:34:41;100279.28;;;11.16;100.00
47670;BME280;33408;52.062;11.722;2023-11-19T10:37:08;100280.09;;;11.18;100.00
47670;BME280;33408;52.062;11.722;2023-11-19T10:39:51;100269.72;;;11.18;100.00
47670;BME280;33408;52.062;11.722;2023-11-19T10:42:19;100280.09;;;11.18;100.00
47670;BME280;33408;52.062;11.722;2023-11-19T10:44:46;100285.44;;;11.12;100.00
47670;BME280;33408;52.062;11.722;2023-11-19T10:47:14;100274.28;;;11.10;100.00
47670;BME280;33408;52.062;11.722;2023-11-19T10:49:44;100270.50;;;11.20;100.00
47670;BME280;33408;52.062;11.722;2023-11-19T10:52:11;100262.94;;;11.14;100.00
47670;BME280;33408;52.062;11.722;2023-11-19T10:54:44;100271.50;;;11.16;100.00
47670;BME280;33408;52.062;11.722;2023-11-19T10:57:14;100283.59;;;11.16;100.00
47670;BME280;33408;52.062;11.722;2023-11-19T10:59:47;100281.63;;;11.25;100.00
47670;BME280;33408;52.062;11.722;2023-11-19T11:02:16;100277.94;;;11.32;100.00
47670;BME280;33408;52.062;11.722;2023-11-19T11:04:47;100273.84;;;11.55;100.00
47670;BME280;33408;52.062;11.722;2023-11-19T11:07:19;100273.38;;;11.71;100.00
47670;BME280;33408;52.062;11.722;2023-11-19T11:09:47;100267.00;;;11.81;100.00
47670;BME280;33408;52.062;11.722;2023-11-19T11:12:17;100263.56;;;11.80;100.00
47670;BME280;33408;52.062;11.722;2023-11-19T11:14:46;100268.06;;;11.75;100.00
47670;BME280;33408;52.062;11.722;2023-11-19T11:17:16;100266.16;;;11.80;100.00
47670;BME280;33408;52.062;11.722;2023-11-19T11:19:44;100267.13;;;11.76;100.00
47670;BME280;33408;52.062;11.722;2023-11-19T11:22:13;100270.47;;;11.80;100.00
47670;BME280;33408;52.062;11.722;2023-11-19T11:25:10;100265.19;;;11.83;100.00
47670;BME280;33408;52.062;11.722;2023-11-19T11:28:00;100260.22;;;12.05;100.00
47670;BME280;33408;52.062;11.722;2023-11-19T11:30:42;100254.72;;;12.14;100.00
47670;BME280;33408;52.062;11.722;2023-11-19T11:33:26;100266.34;;;12.29;100.00
47670;BME280;33408;52.062;11.722;2023-11-19T11:36:08;100263.34;;;12.42;100.00
47670;BME280;33408;52.062;11.722;2023-11-19T11:38:40;100259.84;;;12.68;100.00
47670;BME280;33408;52.062;11.722;2023-11-19T11:41:18;100258.91;;;12.70;100.00
47670;BME280;33408;52.062;11.722;2023-11-19T11:43:47;100253.72;;;12.70;100.00
47670;BME280;33408;52.062;11.722;2023-11-19T11:49:24;100254.81;;;12.63;100.00
47670;BME280;33408;52.062;11.722;2023-11-19T11:52:01;100245.78;;;12.73;100.00
47670;BME280;33408;52.062;11.722;2023-11-19T11:54:31;100243.25;;;12.72;100.00
47670;BME280;33408;52.062;11.722;2023-11-19T11:57:07;100239.72;;;12.73;100.00
47670;BME280;33408;52.062;11.722;2023-11-19T11:59:52;100237.75;;;12.80;100.00
47670;BME280;33408;52.062;11.722;2023-11-19T12:02:20;100237.88;;;12.76;100.00
47670;BME280;33408;52.062;11.722;2023-11-19T12:04:48;100235.50;;;12.70;100.00
47670;BME280;33408;52.062;11.722;2023-11-19T12:07:17;100231.88;;;12.74;100.00
47670;BME280;33408;52.062;11.722;2023-11-19T12:09:48;100234.84;;;12.64;100.00
47670;BME280;33408;52.062;11.722;2023-11-19T12:12:21;100226.06;;;12.68;100.00
47670;BME280;33408;52.062;11.722;2023-11-19T12:15:05;100228.50;;;12.72;100.00
47670;BME280;33408;52.062;11.722;2023-11-19T12:17:47;100223.88;;;12.55;100.00
47670;BME280;33408;52.062;11.722;2023-11-19T12:20:18;100217.09;;;12.51;100.00
47670;BME280;33408;52.062;11.722;2023-11-19T12:22:46;100225.22;;;12.42;100.00
47670;BME280;33408;52.062;11.722;2023-11-19T12:25:16;100216.53;;;12.43;100.00
47670;BME280;33408;52.062;11.722;2023-11-19T12:27:45;100228.75;;;12.39;100.00
47670;BME280;33408;52.062;11.722;2023-11-19T12:30:17;100227.38;;;12.29;100.00
47670;BME280;33408;52.062;11.722;2023-11-19T12:32:45;100233.31;;;12.33;100.00
47670;BME280;33408;52.062;11.722;2023-11-19T12:35:12;100222.81;;;12.36;100.00
47670;BME280;33408;52.062;11.722;2023-11-19T12:37:40;100231.63;;;12.32;100.00
47670;BME280;33408;52.062;11.722;2023-11-19T12:40:14;100225.66;;;12.28;100.00
47670;BME280;33408;52.062;11.722;2023-11-19T12:42:44;100228.44;;;12.24;100.00
47670;BME280;33408;52.062;11.722;2023-11-19T12:45:10;100235.63;;;12.15;100.00
47670;BME280;33408;52.062;11.722;2023-11-19T12:47:38;100230.69;;;12.08;100.00